Tropical Cyclones
[Index]
Main Index Home Page Stock Weather Photos Extreme Storms Discussion Storm News and Storm Chasing Reports Tropical Cyclones / Hurricanes / Typhoons Weather Data and Links Wild Fires / Bushfires Weather Observation Techniques Weather Picture Catalogue Tornado Pictures and Reports Stock Video Footage and DVDs for sale
Season 2011-2012 Tropical Cyclone BENILDE Track Map
Season 2011-2012 Summaries: [BoM-AU] [JTWC-AU] [JTWC-SIO] [JTWC-SPAC] [JTWC-SH]
<<- Previous TC | JTWC 2011-2012 Season | Next TC ->>

click for intensity scale information  Lat/long Grid: Show Hide

 Date Labels: Show Hide

Joint Typhoon Warning Centre Cyclone Data

Name: BENILDE

27 Dec 2011 00:00 UTC to 05 Jan 2012 06:00 UTC

    date/time    lat    long     hPa   cat  kts
2011-12-27 00    9.2    95.1    1007         20          
2011-12-27 06   10.4    94.5    1007         20          
2011-12-27 12   11.2    93.4    1004         25          
2011-12-27 18   11.7    92.3    1000         30          
2011-12-28 00   12.0    91.1    1000         30          
2011-12-28 06   12.2    90.0    1000         30          
2011-12-28 12   12.2    88.9    1000         30          
2011-12-28 18   12.4    87.8     996         35          
2011-12-29 00   12.6    86.7     996         35          
2011-12-29 06   12.8    85.4     996         35          
2011-12-29 12   13.0    84.0     993    1    40          
2011-12-29 18   13.1    82.6     989    1    45          
2011-12-30 00   13.2    81.2     985    1    50          
2011-12-30 06   13.3    79.8     982    2    55          
2011-12-30 12   13.5    78.7     978    2    60          
2011-12-30 12   13.5    78.7     978    2    60          
2011-12-30 18   13.7    77.8     974    2    65          
2011-12-30 18   13.7    77.8     974    2    65          
2011-12-30 18   13.7    77.8     974    2    65          
2011-12-31 00   14.3    77.1     959    3    85          
2011-12-31 00   14.3    77.1     959    3    85          
2011-12-31 00   14.3    77.1     959    3    85          
2011-12-31 06   14.9    76.7     956    3    90          
2011-12-31 06   14.9    76.7     956    3    90          
2011-12-31 06   14.9    76.7     956    3    90          
2011-12-31 12   15.2    76.1     956    3    90          
2011-12-31 12   15.2    76.1     956    3    90          
2011-12-31 12   15.2    76.1     956    3    90          
2011-12-31 18   15.8    75.6     956    3    90          
2011-12-31 18   15.8    75.6     956    3    90          
2011-12-31 18   15.8    75.6     956    3    90          
2012-01-01 00   16.6    75.4     956    3    90          
2012-01-01 00   16.6    75.4     956    3    90          
2012-01-01 00   16.6    75.4     956    3    90          
2012-01-01 06   17.2    75.1     956    3    90          
2012-01-01 06   17.2    75.1     956    3    90          
2012-01-01 06   17.2    75.1     956    3    90          
2012-01-01 12   17.9    74.9     956    3    90          
2012-01-01 12   17.9    74.9     956    3    90          
2012-01-01 12   17.9    74.9     956    3    90          
2012-01-01 18   18.7    74.7     956    3    90          
2012-01-01 18   18.7    74.7     956    3    90          
2012-01-01 18   18.7    74.7     956    3    90          
2012-01-02 00   19.2    74.0     959    3    85          
2012-01-02 00   19.2    74.0     959    3    85          
2012-01-02 00   19.2    74.0     959    3    85          
2012-01-02 06   19.9    73.8     963    3    80          
2012-01-02 06   19.9    73.8     963    3    80          
2012-01-02 06   19.9    73.8     963    3    80          
2012-01-02 12   20.5    73.6     967    3    75          
2012-01-02 12   20.5    73.6     967    3    75          
2012-01-02 12   20.5    73.6     967    3    75          
2012-01-02 18   21.0    73.4     974    2    65          
2012-01-02 18   21.0    73.4     974    2    65          
2012-01-03 00   21.3    73.2     978    2    60          
2012-01-03 00   21.3    73.2     978    2    60          
2012-01-03 06   21.6    73.0     982    2    55          
2012-01-03 06   21.6    73.0     982    2    55          
2012-01-03 12   21.9    73.4     985    1    50          
2012-01-03 12   21.9    73.4     985    1    50          
2012-01-03 18   21.6    73.5     989    1    45          
2012-01-04 00   21.7    73.7     996         35          
2012-01-04 06   21.8    74.7    1007         20          
2012-01-04 12   23.2    75.2    1000         30          
2012-01-04 18   23.5    74.9    1000         30          
2012-01-05 00   23.3    74.6    1000         30          
2012-01-05 06   24.1    75.0    1000         30          
Winds are 1-min average.

Tropical cyclone tracks developed by Michael Bath using data from the Joint Typhoon Warning Centre Best Tracks and Google Maps.


[Australian Severe Weather index] [Copyright Notice] [Email Contacts] [Search This Site] [Privacy Policy]
Document: tropical_cyclone_benilde.htm Updated: 28 June 2017